Time;durP1;ratioP1;P1;durP2;ratioP2;P2;SDS_P1;SDS_P2;PMS_P1;PMS_P2;Temp;Humidity;BMP_temperature;BMP_pressure;BME280_temperature;BME280_humidity;BME280_pressure;Samples;Min_cycle;Max_cycle;Signal;HPM_P1;HPM_P2
2022/09/15 00:00:50;;;;;;;3.10;1.20;;;;;;;21.47;47.55;100698.91;16129821;19;129576;-64
2022/09/15 00:06:12;;;;;;;2.28;1.27;;;;;;;21.45;47.48;100693.59;16132130;19;129725;-63
2022/09/15 00:11:35;;;;;;;5.50;1.60;;;;;;;21.45;47.86;100682.44;16130753;19;130501;-64
2022/09/15 00:16:57;;;;;;;2.50;1.10;;;;;;;21.45;47.75;100685.22;16130339;19;130007;-64
2022/09/15 00:22:19;;;;;;;3.80;1.50;;;;;;;21.44;47.50;100674.38;16130501;19;129626;-64
2022/09/15 00:27:41;;;;;;;2.30;1.15;;;;;;;21.44;47.82;100683.56;16129978;19;130074;-64
2022/09/15 00:33:03;;;;;;;5.82;1.73;;;;;;;21.43;47.37;100681.88;16125807;19;129070;-64
2022/09/15 00:38:24;;;;;;;4.30;1.35;;;;;;;21.43;47.35;100681.88;16127271;19;129619;-64
2022/09/15 00:44:03;;;;;;;4.57;1.58;;;;;;;21.43;47.78;100683.84;16126573;19;129884;-64
2022/09/15 00:49:31;;;;;;;2.50;1.20;;;;;;;21.41;47.31;100684.13;16125203;19;130488;-65
2022/09/15 00:55:02;;;;;;;3.75;1.60;;;;;;;21.41;47.46;100683.28;16126150;19;129984;-64
2022/09/15 01:00:26;;;;;;;4.28;1.30;;;;;;;21.41;47.33;100678.56;16121888;19;130147;-65
2022/09/15 01:05:53;;;;;;;5.25;1.40;;;;;;;21.40;47.56;100685.22;16123574;19;130336;-64
2022/09/15 01:11:15;;;;;;;5.43;1.30;;;;;;;21.38;47.34;100679.09;16125041;19;129798;-64
2022/09/15 01:17:02;;;;;;;4.03;1.45;;;;;;;21.40;47.57;100681.59;16125262;19;129509;-64
2022/09/15 01:22:59;;;;;;;3.58;1.40;;;;;;;21.37;47.33;100680.19;16125039;19;130477;-65
2022/09/15 01:28:46;;;;;;;3.25;1.30;;;;;;;21.36;47.45;100686.88;16123792;19;129729;-64
2022/09/15 01:34:18;;;;;;;5.13;1.30;;;;;;;21.38;47.17;100690.22;16124137;19;129111;-65
2022/09/15 01:39:44;;;;;;;1.58;1.08;;;;;;;21.36;47.48;100695.22;16124829;19;129905;-65
2022/09/15 01:45:11;;;;;;;3.33;1.35;;;;;;;21.35;47.59;100686.00;16124575;19;130003;-65
2022/09/15 01:50:37;;;;;;;2.05;0.98;;;;;;;21.34;47.64;100687.16;16126343;19;130070;-65
2022/09/15 01:56:04;;;;;;;2.42;1.23;;;;;;;21.35;47.66;100690.75;16125839;19;130268;-65
2022/09/15 02:01:42;;;;;;;3.47;1.20;;;;;;;21.36;47.11;100684.09;16125318;19;129839;-65
2022/09/15 02:07:19;;;;;;;2.63;1.20;;;;;;;21.35;47.35;100682.41;16126469;19;129229;-65
2022/09/15 02:12:49;;;;;;;2.95;1.25;;;;;;;21.33;47.67;100684.63;16140086;19;129141;-64
2022/09/15 02:18:15;;;;;;;2.15;1.10;;;;;;;21.33;47.68;100685.47;16134567;19;129465;-65
2022/09/15 02:23:43;;;;;;;3.80;1.17;;;;;;;21.32;47.45;100678.22;16138072;19;129129;-65
2022/09/15 02:29:11;;;;;;;3.20;0.82;;;;;;;21.33;47.46;100687.41;16139765;19;130093;-65
2022/09/15 02:34:37;;;;;;;2.92;0.88;;;;;;;21.31;47.56;100676.56;16139205;19;129805;-65
2022/09/15 02:40:00;;;;;;;4.03;0.90;;;;;;;21.31;47.20;100675.69;16138391;19;130215;-65
2022/09/15 02:45:23;;;;;;;3.80;0.90;;;;;;;21.30;47.35;100676.81;16137100;19;130724;-64
2022/09/15 02:50:45;;;;;;;2.45;0.90;;;;;;;21.30;47.56;100687.94;16138187;19;129916;-65
2022/09/15 02:56:07;;;;;;;1.88;1.10;;;;;;;21.29;47.45;100680.72;16137546;19;130004;-65
2022/09/15 03:01:33;;;;;;;3.42;0.77;;;;;;;21.30;47.58;100682.38;16133850;19;129345;-64
2022/09/15 03:06:55;;;;;;;1.52;0.90;;;;;;;21.29;47.59;100677.94;16135924;19;129585;-64
2022/09/15 03:12:17;;;;;;;1.58;0.90;;;;;;;21.28;47.55;100684.63;16133087;19;129527;-65
2022/09/15 03:17:41;;;;;;;3.33;1.25;;;;;;;21.29;47.09;100686.28;16135670;19;129668;-65
2022/09/15 03:23:03;;;;;;;2.35;1.00;;;;;;;21.27;47.44;100686.53;16133194;19;129806;-65
2022/09/15 03:28:25;;;;;;;2.30;1.10;;;;;;;21.27;47.30;100689.31;16133682;19;130699;-65
2022/09/15 03:33:47;;;;;;;1.55;0.90;;;;;;;21.28;47.24;100692.97;16134842;19;129369;-65
2022/09/15 03:39:11;;;;;;;2.58;0.98;;;;;;;21.27;47.23;100692.09;16132543;19;129989;-65
2022/09/15 03:44:33;;;;;;;1.92;0.93;;;;;;;21.27;47.47;100688.50;16134326;19;129526;-65
2022/09/15 03:49:54;;;;;;;2.25;1.00;;;;;;;21.26;47.37;100686.81;16133320;19;129761;-65
2022/09/15 03:55:16;;;;;;;3.33;1.00;;;;;;;21.24;47.14;100678.72;16131412;19;129559;-64
2022/09/15 04:00:39;;;;;;;2.08;0.90;;;;;;;21.24;47.05;100677.91;16132200;19;129596;-65
2022/09/15 04:06:02;;;;;;;2.67;0.90;;;;;;;21.23;47.17;100688.22;16130629;19;129618;-65
2022/09/15 04:11:24;;;;;;;2.83;1.10;;;;;;;21.22;47.47;100680.97;16129076;19;130038;-65
2022/09/15 04:16:46;;;;;;;2.03;1.27;;;;;;;21.22;47.10;100675.41;16132279;19;129507;-65
2022/09/15 04:22:07;;;;;;;2.13;1.05;;;;;;;21.21;46.92;100685.69;16130098;19;129538;-65
2022/09/15 04:27:33;;;;;;;1.33;0.95;;;;;;;21.19;47.13;100682.31;16128111;19;129456;-65
2022/09/15 04:32:54;;;;;;;4.65;0.95;;;;;;;21.20;47.24;100689.56;16126883;19;130105;-65
2022/09/15 04:38:16;;;;;;;1.92;1.02;;;;;;;21.20;47.35;100688.75;16127434;19;135883;-66
2022/09/15 04:43:38;;;;;;;1.83;0.90;;;;;;;21.19;47.11;100687.88;16126687;19;129364;-65
2022/09/15 04:49:00;;;;;;;1.95;0.80;;;;;;;21.19;46.96;100685.09;16127233;19;130112;-65
2022/09/15 04:54:22;;;;;;;2.13;1.17;;;;;;;21.18;47.01;100686.22;16123993;19;129538;-65
2022/09/15 04:59:44;;;;;;;2.00;0.77;;;;;;;21.18;47.16;100682.59;16126699;19;129692;-65
2022/09/15 05:05:05;;;;;;;1.88;1.00;;;;;;;21.18;47.11;100700.13;16124180;19;130073;-64
2022/09/15 05:10:27;;;;;;;1.50;1.10;;;;;;;21.18;47.09;100691.78;16122830;19;129454;-64
2022/09/15 05:15:49;;;;;;;5.38;1.15;;;;;;;21.15;47.30;100691.47;16126764;19;129330;-63
2022/09/15 05:21:12;;;;;;;3.67;1.38;;;;;;;21.15;47.20;100703.47;16124274;19;130369;-63
2022/09/15 05:26:34;;;;;;;4.15;0.93;;;;;;;21.14;47.33;100701.78;16124461;19;130368;-64
2022/09/15 05:31:56;;;;;;;3.65;1.08;;;;;;;21.14;47.14;100715.69;16125335;19;129501;-64
2022/09/15 05:37:18;;;;;;;1.48;0.80;;;;;;;21.15;47.00;100719.31;16128423;19;130099;-64
2022/09/15 05:42:40;;;;;;;5.05;0.80;;;;;;;21.15;47.20;100722.09;16130754;19;128929;-64
2022/09/15 05:48:02;;;;;;;4.90;0.90;;;;;;;21.13;47.06;100722.34;16141264;19;131424;-64
2022/09/15 05:53:25;;;;;;;5.03;1.13;;;;;;;21.12;47.11;100723.47;16142598;19;129583;-63
2022/09/15 05:58:48;;;;;;;3.03;1.08;;;;;;;21.13;47.10;100724.28;16141677;19;130338;-64
2022/09/15 06:04:11;;;;;;;3.53;1.10;;;;;;;21.12;47.20;100736.53;16141320;19;130268;-63
2022/09/15 06:09:33;;;;;;;3.00;0.88;;;;;;;21.10;47.13;100730.41;16140588;19;129668;-64
2022/09/15 06:14:55;;;;;;;1.55;0.90;;;;;;;21.09;47.32;100737.91;16138393;19;130433;-63
2022/09/15 06:20:17;;;;;;;2.30;0.90;;;;;;;21.10;47.10;100742.34;16139834;19;129718;-63
2022/09/15 06:25:39;;;;;;;2.85;0.93;;;;;;;21.09;47.33;100753.75;16138769;19;129385;-64
2022/09/15 06:31:01;;;;;;;3.28;0.77;;;;;;;21.09;46.96;100768.50;16139475;19;129037;-74
2022/09/15 06:36:25;;;;;;;1.85;0.85;;;;;;;21.08;47.28;100775.16;16137384;19;129353;-70
2022/09/15 06:41:46;;;;;;;5.95;1.00;;;;;;;21.07;47.35;100776.25;16136439;19;129312;-74
2022/09/15 06:47:23;;;;;;;3.40;0.98;;;;;;;21.09;47.01;100781.59;16137018;19;129618;-66
2022/09/15 06:52:45;;;;;;;3.55;0.80;;;;;;;21.08;47.22;100783.50;16138118;19;129333;-64
2022/09/15 06:58:06;;;;;;;1.98;0.95;;;;;;;21.07;47.21;100781.81;16137675;19;129369;-65
2022/09/15 07:03:29;;;;;;;1.70;1.05;;;;;;;21.08;46.97;100791.84;16135362;19;129905;-64
2022/09/15 07:08:52;;;;;;;1.55;0.98;;;;;;;21.06;46.92;100794.91;16134166;19;128918;-63
2022/09/15 07:14:14;;;;;;;2.75;1.17;;;;;;;21.07;46.73;100806.84;16132095;19;129585;-63
2022/09/15 07:19:37;;;;;;;6.50;1.30;;;;;;;21.06;46.74;100811.59;16134936;19;129792;-63
2022/09/15 07:24:59;;;;;;;2.05;1.02;;;;;;;21.06;47.13;100808.81;16134329;19;129002;-63
2022/09/15 07:30:20;;;;;;;3.53;1.30;;;;;;;21.06;46.69;100816.31;16132737;19;130078;-66
2022/09/15 07:35:43;;;;;;;6.50;1.33;;;;;;;21.08;47.00;100813.28;16133126;19;130683;-66
2022/09/15 07:41:08;;;;;;;4.22;1.27;;;;;;;21.09;46.82;100821.34;16133765;19;129357;-66
2022/09/15 07:46:31;;;;;;;2.72;1.02;;;;;;;21.09;47.23;100815.78;16131952;19;129113;-67
2022/09/15 07:51:53;;;;;;;2.60;1.15;;;;;;;21.09;47.29;100818.56;16133592;19;129367;-66
2022/09/15 07:57:14;;;;;;;1.98;0.90;;;;;;;21.10;47.17;100817.47;16134562;19;128885;-67
2022/09/15 08:02:36;;;;;;;6.65;1.55;;;;;;;21.12;47.63;100831.94;16134356;19;133543;-66
2022/09/15 08:07:58;;;;;;;4.45;1.00;;;;;;;21.13;47.63;100822.50;16132607;19;129767;-66
2022/09/15 08:13:20;;;;;;;4.35;1.10;;;;;;;21.18;47.44;100830.88;16134777;19;130007;-66
2022/09/15 08:18:42;;;;;;;4.40;1.05;;;;;;;21.22;47.66;100831.19;16134251;19;133580;-66
2022/09/15 08:24:04;;;;;;;4.45;1.20;;;;;;;21.27;47.73;100841.53;16134668;19;130318;-66
2022/09/15 08:29:26;;;;;;;3.22;1.20;;;;;;;21.32;47.49;100847.13;16132520;19;129397;-66
2022/09/15 08:34:47;;;;;;;4.93;1.63;;;;;;;21.37;48.27;100855.50;16132365;19;129639;-66
2022/09/15 08:40:22;;;;;;;5.82;1.00;;;;;;;21.40;47.92;100859.69;16130896;19;129526;-66
2022/09/15 08:46:03;;;;;;;4.10;1.15;;;;;;;21.39;48.09;100870.00;16131976;19;129397;-66
2022/09/15 08:51:33;;;;;;;4.85;1.63;;;;;;;21.39;47.66;100875.56;16128881;19;129415;-66
2022/09/15 08:56:56;;;;;;;6.35;1.00;;;;;;;21.41;47.68;100878.94;16132921;19;130087;-66
2022/09/15 09:02:35;;;;;;;4.82;1.10;;;;;;;21.43;47.78;100879.47;16129371;19;129406;-66
2022/09/15 09:08:14;;;;;;;3.55;1.10;;;;;;;21.43;48.15;100887.81;16130827;19;133287;-66
2022/09/15 09:13:45;;;;;;;2.70;0.90;;;;;;;21.41;48.24;100898.41;16132731;19;129522;-66
2022/09/15 09:19:33;;;;;;;3.20;1.13;;;;;;;21.40;48.15;100899.50;16130479;19;129569;-66
2022/09/15 09:24:59;;;;;;;3.90;1.20;;;;;;;21.39;47.90;100896.97;16128650;19;132957;-66
2022/09/15 09:30:37;;;;;;;2.58;0.80;;;;;;;21.37;48.29;100898.06;16124525;19;132349;-66
2022/09/15 09:36:01;;;;;;;3.13;1.08;;;;;;;21.38;48.11;100901.72;16126250;19;130483;-66
2022/09/15 09:41:27;;;;;;;4.47;1.10;;;;;;;21.38;48.32;100890.59;16126100;19;129929;-66
2022/09/15 09:46:49;;;;;;;3.25;1.00;;;;;;;21.38;48.31;100885.03;16126454;19;129244;-66
2022/09/15 09:52:11;;;;;;;7.53;0.98;;;;;;;21.38;48.28;100887.81;16123884;19;130857;-66
2022/09/15 09:57:35;;;;;;;4.80;0.90;;;;;;;21.38;48.37;100879.47;16126378;19;129732;-66
2022/09/15 10:03:29;;;;;;;3.13;0.95;;;;;;;21.37;48.44;100884.16;16127038;19;129643;-67
2022/09/15 10:09:02;;;;;;;5.15;1.02;;;;;;;21.35;48.21;100889.16;16126857;19;129366;-67
2022/09/15 10:14:23;;;;;;;5.00;1.13;;;;;;;21.33;47.97;100894.16;16123749;19;129384;-66
2022/09/15 10:19:53;;;;;;;2.65;1.13;;;;;;;21.35;48.38;100893.88;16123355;19;129379;-67
2022/09/15 10:25:18;;;;;;;5.72;1.20;;;;;;;21.33;48.26;100901.66;16121932;19;129423;-66
2022/09/15 10:31:05;;;;;;;4.80;1.40;;;;;;;21.33;48.24;100887.75;16132536;19;129707;-66
2022/09/15 10:36:29;;;;;;;2.58;1.13;;;;;;;21.32;47.90;100883.28;16141138;19;129847;-67
2022/09/15 10:42:00;;;;;;;4.97;0.90;;;;;;;21.35;47.91;100885.53;16136901;19;129492;-66
2022/09/15 10:47:49;;;;;;;3.50;1.10;;;;;;;21.36;48.32;100893.63;16138123;19;129715;-67
2022/09/15 10:53:24;;;;;;;5.63;1.10;;;;;;;21.36;48.27;100881.66;16137652;19;129329;-67
2022/09/15 10:58:59;;;;;;;3.90;1.30;;;;;;;21.36;48.67;100879.69;16138612;19;129054;-67
2022/09/15 11:04:51;;;;;;;3.88;1.00;;;;;;;21.41;48.57;100894.78;16135560;19;129993;-67
2022/09/15 11:10:18;;;;;;;5.18;1.08;;;;;;;21.40;48.51;100888.38;16137999;19;129109;-67
2022/09/15 11:16:15;;;;;;;5.68;1.13;;;;;;;21.40;48.41;100905.06;16140691;19;130099;-67
2022/09/15 11:21:44;;;;;;;2.95;1.02;;;;;;;21.38;48.43;100912.84;16139202;19;130015;-67
2022/09/15 11:27:31;;;;;;;2.40;0.82;;;;;;;21.37;48.18;100908.38;16137702;19;129472;-66
2022/09/15 11:33:03;;;;;;;3.15;1.10;;;;;;;21.35;48.44;100918.94;16135176;19;129484;-67
2022/09/15 11:38:30;;;;;;;3.45;0.98;;;;;;;21.31;48.40;100940.91;16136414;19;129131;-67
2022/09/15 11:43:56;;;;;;;4.78;1.08;;;;;;;21.28;47.94;100940.59;16134074;19;129586;-67
2022/09/15 11:49:27;;;;;;;3.35;0.90;;;;;;;21.28;48.36;100940.59;16136217;19;129991;-67
2022/09/15 11:55:12;;;;;;;3.60;1.02;;;;;;;21.26;48.03;100931.66;16134325;19;129049;-67
2022/09/15 12:00:47;;;;;;;2.60;1.10;;;;;;;21.24;48.03;100939.44;16133639;19;129218;-66
2022/09/15 12:06:16;;;;;;;2.10;0.80;;;;;;;21.25;48.05;100946.69;16134369;19;129505;-67
2022/09/15 12:11:43;;;;;;;5.30;1.27;;;;;;;21.25;48.32;100946.69;16134372;19;129607;-67
2022/09/15 12:17:08;;;;;;;3.20;1.30;;;;;;;21.25;48.29;100939.16;16134122;19;129057;-67
2022/09/15 12:22:53;;;;;;;3.20;1.00;;;;;;;21.26;48.09;100942.78;16132070;19;129218;-67
2022/09/15 12:28:20;;;;;;;3.55;0.90;;;;;;;21.26;47.86;100943.63;16131845;19;128880;-67
2022/09/15 12:34:00;;;;;;;3.40;1.00;;;;;;;21.27;48.41;100938.91;16129933;19;129150;-67
2022/09/15 12:39:28;;;;;;;3.08;0.90;;;;;;;21.30;48.35;100938.34;16131254;19;130687;-67
2022/09/15 12:45:20;;;;;;;2.33;1.00;;;;;;;21.31;48.32;100940.03;16130971;19;129315;-67
2022/09/15 12:50:52;;;;;;;2.47;0.93;;;;;;;21.32;48.43;100927.81;16131582;19;129954;-67
2022/09/15 12:56:28;;;;;;;3.53;0.90;;;;;;;21.32;47.90;100930.59;16129725;19;129465;-66
2022/09/15 13:01:51;;;;;;;4.15;0.90;;;;;;;21.31;48.19;100940.03;16128806;19;129445;-67
2022/09/15 13:07:17;;;;;;;3.20;1.10;;;;;;;21.33;48.52;100943.41;16128200;19;128962;-66
2022/09/15 13:12:56;;;;;;;1.90;0.80;;;;;;;21.34;48.14;100933.94;16130225;19;131232;-67
2022/09/15 13:18:19;;;;;;;4.93;1.00;;;;;;;21.34;48.34;100939.50;16127569;19;129277;-67
2022/09/15 13:23:47;;;;;;;1.63;0.80;;;;;;;21.34;48.46;100928.38;16129586;19;132298;-67
2022/09/15 13:29:14;;;;;;;1.98;0.90;;;;;;;21.36;48.45;100942.88;16126861;19;129480;-67
2022/09/15 13:34:50;;;;;;;2.30;1.00;;;;;;;21.37;48.19;100923.13;16125108;19;129076;-67
2022/09/15 13:40:58;;;;;;;2.22;0.75;;;;;;;21.35;48.11;100921.72;16126415;19;129973;-67
2022/09/15 13:46:57;;;;;;;3.28;0.85;;;;;;;21.35;48.10;100935.63;16125183;19;130345;-67
2022/09/15 13:52:22;;;;;;;2.65;0.80;;;;;;;21.32;48.46;100933.38;16125827;19;129482;-67
2022/09/15 13:57:48;;;;;;;4.07;0.60;;;;;;;21.30;48.43;100927.22;16126670;19;129916;-67
2022/09/15 14:03:40;;;;;;;2.80;1.00;;;;;;;21.31;48.43;100929.75;16127046;19;130104;-67
2022/09/15 14:09:12;;;;;;;0.80;0.63;;;;;;;21.30;47.91;100933.66;16142654;19;129802;-67
2022/09/15 14:14:42;;;;;;;4.57;1.00;;;;;;;21.28;48.18;100938.63;16142547;19;129271;-67
2022/09/15 14:20:23;;;;;;;2.05;0.90;;;;;;;21.28;48.04;100943.38;16138469;19;129638;-67
2022/09/15 14:25:44;;;;;;;3.95;0.88;;;;;;;21.25;47.56;100947.50;16140892;19;129526;-67
2022/09/15 14:31:06;;;;;;;3.28;0.70;;;;;;;21.25;47.67;100946.69;16140830;19;129371;-66
2022/09/15 14:36:30;;;;;;;2.85;1.20;;;;;;;21.22;47.43;100945.28;16136764;19;129679;-67
2022/09/15 14:41:52;;;;;;;3.35;0.73;;;;;;;21.21;47.89;100947.19;16138748;19;130142;-67
2022/09/15 14:47:30;;;;;;;4.60;1.10;;;;;;;21.22;47.61;100953.63;16137187;19;129597;-67
2022/09/15 14:53:01;;;;;;;2.47;0.90;;;;;;;21.22;47.70;100953.63;16138693;19;130358;-67
2022/09/15 14:58:30;;;;;;;2.80;1.00;;;;;;;21.21;47.48;100958.31;16136262;19;129892;-66
2022/09/15 15:04:08;;;;;;;1.73;0.60;;;;;;;21.20;47.49;100962.22;16136401;19;129442;-67
2022/09/15 15:09:46;;;;;;;2.25;0.80;;;;;;;21.21;47.45;100958.31;16133368;19;129630;-67
2022/09/15 15:15:13;;;;;;;3.25;0.70;;;;;;;21.20;47.46;100959.44;16137559;19;129144;-67
2022/09/15 15:20:48;;;;;;;3.58;0.85;;;;;;;21.19;47.21;100974.44;16137584;19;129385;-65
2022/09/15 15:26:34;;;;;;;3.45;0.63;;;;;;;21.18;46.67;100969.16;16137201;19;129486;-64
2022/09/15 15:32:15;;;;;;;4.47;0.90;;;;;;;21.15;46.50;100972.44;16135440;19;129477;-64
2022/09/15 15:37:36;;;;;;;3.65;0.90;;;;;;;21.13;46.75;100983.00;16136112;19;130100;-64
2022/09/15 15:43:05;;;;;;;5.63;0.77;;;;;;;21.12;46.44;100984.94;16136743;19;129342;-65
2022/09/15 15:48:31;;;;;;;2.92;0.70;;;;;;;21.11;46.60;100990.78;16134990;19;129570;-65
2022/09/15 15:53:57;;;;;;;8.18;0.93;;;;;;;21.12;46.65;100993.28;16134769;19;129775;-65
2022/09/15 15:59:20;;;;;;;3.42;0.80;;;;;;;21.16;47.17;101001.94;16134649;19;130021;-65
2022/09/15 16:04:41;;;;;;;8.52;0.95;;;;;;;21.17;46.79;100990.53;16132915;19;134203;-65
2022/09/15 16:10:04;;;;;;;3.30;1.10;;;;;;;21.20;47.55;100995.59;16130925;19;129459;-65
2022/09/15 16:15:26;;;;;;;10.55;1.05;;;;;;;21.22;47.49;100998.97;16133393;19;129558;-65
2022/09/15 16:20:48;;;;;;;7.22;1.40;;;;;;;21.25;47.45;100991.19;16133387;19;130041;-65
2022/09/15 16:26:14;;;;;;;9.77;1.38;;;;;;;21.28;47.92;101002.63;16130111;19;130004;-65
2022/09/15 16:31:37;;;;;;;9.25;1.55;;;;;;;21.29;47.80;100993.19;16133772;19;129586;-64
2022/09/15 16:36:58;;;;;;;8.60;1.45;;;;;;;21.31;47.25;101006.81;16131988;19;129520;-64
2022/09/15 16:42:20;;;;;;;5.18;1.17;;;;;;;21.28;47.66;101001.81;16129642;19;130508;-64
2022/09/15 16:47:42;;;;;;;10.13;1.33;;;;;;;21.27;47.87;101006.50;16130069;19;129823;-65
2022/09/15 16:53:04;;;;;;;4.85;1.00;;;;;;;21.27;47.61;101009.28;16128684;19;129417;-65
2022/09/15 16:58:26;;;;;;;6.63;1.40;;;;;;;21.25;47.82;101011.50;16130309;19;129191;-65
2022/09/15 17:03:48;;;;;;;6.25;1.20;;;;;;;21.25;47.77;101008.72;16128442;19;129203;-66
2022/09/15 17:09:10;;;;;;;9.02;1.45;;;;;;;21.24;47.36;101017.34;16127443;19;129489;-65
2022/09/15 17:14:31;;;;;;;6.63;1.05;;;;;;;21.21;47.42;101013.16;16125717;19;129932;-65
2022/09/15 17:19:53;;;;;;;3.30;1.00;;;;;;;21.19;47.66;101016.16;16128948;19;129340;-65
2022/09/15 17:25:24;;;;;;;15.93;1.52;;;;;;;21.18;47.46;101014.47;16126840;19;129790;-70
2022/09/15 17:30:47;;;;;;;13.38;2.08;;;;;;;21.15;47.65;101019.75;16125914;19;130339;-65
2022/09/15 17:36:10;;;;;;;12.57;1.48;;;;;;;21.12;47.11;101012.75;16125605;19;129548;-64
2022/09/15 17:41:31;;;;;;;13.60;1.50;;;;;;;21.12;46.90;101015.53;16125181;19;129861;-67
2022/09/15 17:46:53;;;;;;;16.00;2.30;;;;;;;21.13;47.00;101017.22;16123918;19;129589;-68
2022/09/15 17:52:15;;;;;;;13.07;1.98;;;;;;;21.16;47.42;101022.28;16140504;19;129330;-65
2022/09/15 17:57:37;;;;;;;14.45;2.03;;;;;;;21.16;47.24;101022.28;16176962;19;129309;-68
2022/09/15 18:03:02;;;;;;;14.23;1.70;;;;;;;21.13;47.27;101017.22;16179870;19;129405;-67
2022/09/15 18:08:24;;;;;;;10.90;1.50;;;;;;;21.11;46.99;101019.44;16166654;19;128919;-68
2022/09/15 18:13:46;;;;;;;18.02;1.83;;;;;;;21.13;47.18;101020.00;16131034;19;129265;-67
2022/09/15 18:19:08;;;;;;;11.32;1.40;;;;;;;21.14;46.97;101024.47;16125802;19;130189;-68
2022/09/15 18:24:29;;;;;;;13.90;1.80;;;;;;;21.13;47.11;101022.78;16121324;19;129699;-65
2022/09/15 18:29:51;;;;;;;15.88;1.50;;;;;;;21.12;47.23;101032.25;16126074;19;129942;-65
2022/09/15 18:35:16;;;;;;;14.60;1.63;;;;;;;21.14;47.40;101030.03;16123487;19;129543;-63
2022/09/15 18:40:44;;;;;;;18.13;1.50;;;;;;;21.21;47.64;101041.78;16125214;19;130385;-65
2022/09/15 18:46:06;;;;;;;5.70;1.33;;;;;;;21.21;47.35;101047.34;16122527;19;129163;-64
2022/09/15 18:51:27;;;;;;;14.27;2.13;;;;;;;21.18;47.39;101050.66;16129767;19;130380;-64
2022/09/15 18:57:09;;;;;;;17.17;1.60;;;;;;;21.17;47.85;101057.31;16138163;19;130614;-66
2022/09/15 19:02:31;;;;;;;22.52;2.22;;;;;;;21.16;47.60;101057.59;16136873;19;129419;-65
2022/09/15 19:07:54;;;;;;;16.85;1.50;;;;;;;21.16;47.38;101061.22;16119534;19;129108;-67
2022/09/15 19:13:15;;;;;;;5.93;1.35;;;;;;;21.15;47.59;101056.75;16130660;19;130082;-65
2022/09/15 19:18:37;;;;;;;14.50;1.60;;;;;;;21.15;47.52;101059.53;16105930;19;130418;-66
2022/09/15 19:24:00;;;;;;;13.00;2.08;;;;;;;21.16;47.44;101065.94;16154927;19;129947;-66
2022/09/15 19:29:22;;;;;;;32.15;1.73;;;;;;;21.15;47.59;101065.09;16210605;19;128741;-61
2022/09/15 19:34:44;;;;;;;30.77;1.95;;;;;;;21.17;47.58;101062.88;16215907;19;130002;-67
2022/09/15 19:40:09;;;;;;;22.40;2.05;;;;;;;21.22;48.21;101079.66;16217898;19;129751;-66
2022/09/15 19:45:30;;;;;;;28.27;2.13;;;;;;;21.24;48.07;101078.53;16213391;19;129105;-69
2022/09/15 19:50:52;;;;;;;14.82;2.13;;;;;;;21.27;48.06;101089.16;16212812;19;129629;-66
2022/09/15 19:56:21;;;;;;;21.08;1.50;;;;;;;21.30;48.57;101077.50;16202577;19;129546;-65
2022/09/15 20:01:42;;;;;;;8.98;1.20;;;;;;;21.33;48.38;101088.09;16193803;19;129173;-62
2022/09/15 20:07:04;;;;;;;11.50;1.17;;;;;;;21.37;48.43;101090.09;16210614;19;129830;-64
2022/09/15 20:12:26;;;;;;;17.73;1.20;;;;;;;21.40;48.69;101083.19;16206398;19;130029;-66
2022/09/15 20:17:48;;;;;;;11.93;1.70;;;;;;;21.43;49.03;101079.03;16215403;19;128977;-67
2022/09/15 20:23:09;;;;;;;10.35;1.27;;;;;;;21.44;48.60;101083.50;16173745;19;129247;-62
2022/09/15 20:28:32;;;;;;;8.88;1.60;;;;;;;21.45;48.43;101086.00;16163858;19;129729;-61
2022/09/15 20:33:55;;;;;;;12.27;1.80;;;;;;;21.46;48.77;101092.44;16193091;19;130007;-63
2022/09/15 20:39:20;;;;;;;22.75;1.73;;;;;;;21.46;48.66;101084.91;16195022;19;129000;-65
2022/09/15 20:44:42;;;;;;;24.00;1.45;;;;;;;21.46;48.25;101092.44;16200472;19;128994;-68
2022/09/15 20:50:04;;;;;;;8.77;1.23;;;;;;;21.45;48.04;101096.31;16192376;19;128969;-63
2022/09/15 20:55:26;;;;;;;12.55;1.77;;;;;;;21.43;48.05;101096.56;16190340;19;129410;-69
2022/09/15 21:00:48;;;;;;;10.85;1.13;;;;;;;21.43;47.91;101096.56;16161139;19;129230;-70
2022/09/15 21:06:16;;;;;;;7.30;1.17;;;;;;;21.42;47.81;101097.66;16130016;19;129988;-63
2022/09/15 21:11:38;;;;;;;8.75;1.50;;;;;;;21.42;47.68;101107.97;16130381;19;129541;-65
2022/09/15 21:17:00;;;;;;;9.23;0.80;;;;;;;21.40;47.86;101099.88;16128449;19;129425;-68
2022/09/15 21:22:21;;;;;;;7.20;1.00;;;;;;;21.40;47.83;101107.38;16128596;19;129498;-65
2022/09/15 21:27:45;;;;;;;6.15;0.90;;;;;;;21.38;47.50;101104.88;16124995;19;129779;-62
2022/09/15 21:33:07;;;;;;;3.67;0.95;;;;;;;21.36;47.84;101093.16;16152125;19;129087;-69
2022/09/15 21:38:28;;;;;;;6.95;1.00;;;;;;;21.37;47.48;101106.78;16181582;19;129261;-70
2022/09/15 21:43:53;;;;;;;7.55;0.90;;;;;;;21.38;47.62;101107.66;16146998;19;130243;-72
2022/09/15 21:49:17;;;;;;;5.95;0.90;;;;;;;21.38;47.60;101107.66;16127947;19;129437;-72
2022/09/15 21:54:38;;;;;;;7.38;0.90;;;;;;;21.39;47.59;101108.47;16159349;19;129808;-69
2022/09/15 22:00:00;;;;;;;8.25;1.00;;;;;;;21.39;47.31;101112.13;16200072;19;129059;-70
2022/09/15 22:05:22;;;;;;;7.60;1.15;;;;;;;21.40;47.12;101124.94;16156488;19;129288;-69
2022/09/15 22:10:44;;;;;;;9.50;0.80;;;;;;;21.39;47.65;101114.91;16127447;19;130381;-68
2022/09/15 22:16:24;;;;;;;4.72;0.98;;;;;;;21.39;47.23;101114.91;16124397;19;129535;-68
2022/09/15 22:21:46;;;;;;;3.40;0.70;;;;;;;21.36;47.32;101123.78;16124172;19;129268;-69
2022/09/15 22:27:08;;;;;;;2.38;0.57;;;;;;;21.34;47.63;101115.69;16134818;19;133900;-69
2022/09/15 22:32:30;;;;;;;3.05;0.77;;;;;;;21.32;47.44;101114.25;16140020;19;129745;-68
2022/09/15 22:37:51;;;;;;;5.40;0.88;;;;;;;21.31;47.41;101105.06;16140587;19;129709;-68
2022/09/15 22:43:13;;;;;;;3.97;0.60;;;;;;;21.29;47.53;101100.88;16140732;19;130732;-69
2022/09/15 22:48:35;;;;;;;3.05;0.60;;;;;;;21.28;47.32;101101.97;16140803;19;130743;-68
2022/09/15 22:54:04;;;;;;;1.83;0.52;;;;;;;21.26;47.53;101101.38;16142154;19;130181;-67
2022/09/15 22:59:26;;;;;;;1.08;0.38;;;;;;;21.25;47.58;101096.94;16143016;19;129081;-68
2022/09/15 23:04:48;;;;;;;5.82;0.63;;;;;;;21.22;47.41;101095.50;16139237;19;133947;-69
2022/09/15 23:10:09;;;;;;;1.88;0.60;;;;;;;21.20;47.65;101095.75;16138179;19;129285;-69
2022/09/15 23:15:33;;;;;;;1.67;0.38;;;;;;;21.19;47.67;101093.25;16141209;19;129769;-69
2022/09/15 23:20:59;;;;;;;1.63;0.50;;;;;;;21.18;47.88;101095.16;16139166;19;129026;-69
2022/09/15 23:26:22;;;;;;;2.13;0.38;;;;;;;21.16;47.84;101093.75;16138898;19;131812;-68
2022/09/15 23:31:44;;;;;;;1.35;0.30;;;;;;;21.16;47.75;101099.31;16136451;19;132773;-69
2022/09/15 23:37:06;;;;;;;2.08;0.40;;;;;;;21.13;47.58;101092.34;16138370;19;129523;-69
2022/09/15 23:42:28;;;;;;;1.45;0.40;;;;;;;21.12;47.53;101090.66;16139704;19;129029;-68
2022/09/15 23:47:49;;;;;;;1.70;0.40;;;;;;;21.10;47.86;101092.84;16139169;19;129220;-69
2022/09/15 23:53:11;;;;;;;1.77;0.50;;;;;;;21.09;47.99;101091.16;16139609;19;130620;-69
2022/09/15 23:58:33;;;;;;;0.70;0.40;;;;;;;21.09;47.47;101090.34;16136540;19;131181;-68
